Time;durP1;ratioP1;P1;durP2;ratioP2;P2;SDS_P1;SDS_P2;PMS_P1;PMS_P2;Temp;Humidity;BMP_temperature;BMP_pressure;BME280_temperature;BME280_humidity;BME280_pressure;Samples;Min_cycle;Max_cycle;Signal;HPM_P1;HPM_P2
2021/11/26 00:01:55;;;;;;;2.40;1.90;;;20.90;26.10;21.30;92769.00;;;;10358376;28;46773;-59
2021/11/26 00:06:55;;;;;;;3.42;2.20;;;20.90;26.30;21.30;92767.00;;;;10357106;28;47617;-59
2021/11/26 00:11:57;;;;;;;3.22;2.05;;;20.90;26.10;21.30;92788.00;;;;10358179;28;45470;-60
2021/11/26 00:16:59;;;;;;;2.50;1.80;;;20.90;26.00;21.30;92792.00;;;;10372761;28;47811;-60
2021/11/26 00:22:00;;;;;;;2.78;2.22;;;20.90;26.20;21.30;92774.00;;;;10356564;28;45319;-61
2021/11/26 00:27:01;;;;;;;2.72;2.03;;;20.90;26.20;21.30;92785.00;;;;10357614;28;46110;-61
2021/11/26 00:32:03;;;;;;;2.83;2.17;;;20.90;26.10;21.30;92769.00;;;;10357173;28;45288;-60
2021/11/26 00:37:04;;;;;;;3.10;2.30;;;20.80;26.10;21.20;92761.00;;;;10356900;28;45313;-60
2021/11/26 00:42:05;;;;;;;3.78;2.42;;;20.90;26.10;21.20;92754.00;;;;10356077;28;45228;-60
2021/11/26 00:47:06;;;;;;;3.17;2.05;;;20.80;26.10;21.20;92746.00;;;;10355675;28;45415;-60
2021/11/26 00:52:06;;;;;;;3.28;2.35;;;20.80;26.00;21.20;92746.00;;;;10355538;28;45213;-60
2021/11/26 00:57:08;;;;;;;2.80;1.98;;;20.80;25.90;21.20;92733.00;;;;10355073;28;47130;-60
2021/11/26 01:02:08;;;;;;;2.47;2.00;;;20.80;26.00;21.20;92737.00;;;;10356190;28;46305;-60
2021/11/26 01:07:09;;;;;;;2.80;2.10;;;20.80;25.90;21.20;92721.00;;;;10353976;28;47273;-61
2021/11/26 01:12:10;;;;;;;2.72;2.03;;;20.80;26.00;21.20;92736.00;;;;10353674;28;47904;-61
2021/11/26 01:17:11;;;;;;;3.55;2.20;;;20.80;25.90;21.20;92732.00;;;;10354733;28;45565;-62
2021/11/26 01:22:13;;;;;;;2.53;1.90;;;20.80;25.90;21.20;92716.00;;;;10353776;28;45445;-61
2021/11/26 01:27:14;;;;;;;2.33;1.83;;;20.80;25.90;21.20;92702.00;;;;10353208;28;45982;-61
2021/11/26 01:32:14;;;;;;;2.10;1.60;;;20.80;25.90;21.20;92705.00;;;;10352646;28;45651;-60
2021/11/26 01:37:15;;;;;;;2.97;1.80;;;20.80;25.80;21.20;92717.00;;;;10352846;28;46122;-61
2021/11/26 01:42:16;;;;;;;2.97;1.70;;;20.80;25.80;21.20;92700.00;;;;10354278;28;46241;-61
2021/11/26 01:47:17;;;;;;;2.30;1.70;;;20.70;25.70;21.20;92691.00;;;;10352476;28;47123;-61
2021/11/26 01:52:18;;;;;;;1.95;1.33;;;20.80;25.70;21.20;92687.00;;;;10352577;28;46718;-62
2021/11/26 01:57:19;;;;;;;1.77;1.42;;;20.70;26.00;21.10;92670.00;;;;10352587;28;45330;-63
2021/11/26 02:02:21;;;;;;;2.28;1.50;;;20.70;25.80;21.10;92661.00;;;;10346438;28;47072;-63
2021/11/26 02:07:21;;;;;;;1.75;1.38;;;20.70;25.70;21.10;92674.00;;;;10350014;28;47194;-62
2021/11/26 02:12:22;;;;;;;1.70;1.33;;;20.70;25.70;21.20;92662.00;;;;10353641;28;45388;-62
2021/11/26 02:17:23;;;;;;;1.48;1.38;;;20.70;25.70;21.10;92650.00;;;;10352067;28;48284;-60
2021/11/26 02:22:24;;;;;;;1.48;1.30;;;20.70;25.80;21.20;92657.00;;;;10353075;28;45293;-60
2021/11/26 02:27:25;;;;;;;1.33;1.23;;;20.70;25.90;21.10;92656.00;;;;10352903;28;45206;-60
2021/11/26 02:32:26;;;;;;;2.10;1.48;;;20.70;25.60;21.10;92641.00;;;;10353178;28;45399;-60
2021/11/26 02:37:26;;;;;;;2.45;1.45;;;20.70;25.70;21.10;92645.00;;;;10352295;28;45522;-60
2021/11/26 02:42:27;;;;;;;1.83;1.42;;;20.80;25.70;21.10;92642.00;;;;10352209;28;45371;-60
2021/11/26 02:47:28;;;;;;;2.15;1.52;;;20.70;25.60;21.10;92648.00;;;;10353271;28;46316;-62
2021/11/26 02:52:28;;;;;;;2.00;1.60;;;20.70;25.60;21.10;92626.00;;;;10351738;28;46899;-60
2021/11/26 02:57:29;;;;;;;1.70;1.50;;;20.70;25.70;21.10;92631.00;;;;10352772;28;45679;-60
2021/11/26 03:02:30;;;;;;;1.67;1.40;;;20.70;25.70;21.10;92634.00;;;;10351464;28;48250;-60
2021/11/26 03:07:30;;;;;;;2.15;1.50;;;20.70;25.90;21.10;92612.00;;;;10352635;28;45588;-60
2021/11/26 03:12:32;;;;;;;2.00;1.55;;;20.70;25.70;21.10;92628.00;;;;10351718;28;45394;-60
2021/11/26 03:17:32;;;;;;;2.05;1.60;;;20.70;25.80;21.10;92615.00;;;;10356113;28;45504;-60
2021/11/26 03:22:33;;;;;;;2.45;1.90;;;20.70;25.70;21.10;92612.00;;;;10359880;28;45153;-59
2021/11/26 03:27:34;;;;;;;2.78;1.90;;;20.70;25.80;21.10;92591.00;;;;10358216;28;45592;-60
2021/11/26 03:32:35;;;;;;;4.28;2.30;;;20.70;25.80;21.10;92600.00;;;;10357433;28;47212;-59
2021/11/26 03:37:36;;;;;;;4.75;2.63;;;20.70;25.90;21.10;92588.00;;;;10357408;28;46933;-62
2021/11/26 03:42:37;;;;;;;6.70;2.78;;;20.70;25.70;21.10;92593.00;;;;10356670;28;45289;-62
2021/11/26 03:47:38;;;;;;;5.38;2.90;;;20.70;25.70;21.10;92580.00;;;;10357056;28;45194;-62
2021/11/26 03:52:40;;;;;;;5.25;3.00;;;20.70;25.70;21.10;92587.00;;;;10356920;28;45466;-61
2021/11/26 03:57:41;;;;;;;7.85;3.75;;;20.70;25.80;21.10;92580.00;;;;10355865;28;47124;-62
2021/11/26 04:02:43;;;;;;;5.43;3.25;;;20.60;25.60;21.10;92564.00;;;;10356387;28;47161;-62
2021/11/26 04:07:44;;;;;;;6.57;3.30;;;20.70;25.70;21.10;92568.00;;;;10356931;28;45581;-61
2021/11/26 04:12:47;;;;;;;6.57;3.45;;;20.60;25.70;21.10;92560.00;;;;10356513;28;47080;-60
2021/11/26 04:17:50;;;;;;;6.15;3.30;;;20.70;25.90;21.10;92566.00;;;;10356510;28;45576;-60
2021/11/26 04:22:51;;;;;;;5.85;3.15;;;20.70;25.70;21.00;92561.00;;;;10357791;28;45171;-60
2021/11/26 04:27:51;;;;;;;6.40;3.15;;;20.60;25.70;21.00;92565.00;;;;10357158;28;45530;-60
2021/11/26 04:32:53;;;;;;;6.53;2.80;;;20.60;25.60;21.10;92564.00;;;;10355697;28;45434;-62
2021/11/26 04:37:54;;;;;;;6.30;3.30;;;20.60;25.70;21.10;92559.00;;;;10354760;28;45421;-61
2021/11/26 04:42:55;;;;;;;5.78;3.17;;;20.60;25.80;21.00;92535.00;;;;10355652;28;46455;-61
2021/11/26 04:47:56;;;;;;;5.60;3.10;;;20.60;25.70;21.10;92539.00;;;;10355871;28;46343;-59
2021/11/26 04:52:57;;;;;;;4.85;3.00;;;20.60;25.70;21.00;92538.00;;;;10355769;28;45681;-66
2021/11/26 04:57:57;;;;;;;4.63;2.92;;;20.60;25.80;21.00;92550.00;;;;10356461;28;45646;-60
2021/11/26 05:02:58;;;;;;;4.78;2.80;;;20.60;25.80;21.00;92536.00;;;;10354547;28;45344;-59
2021/11/26 05:07:59;;;;;;;4.65;2.47;;;20.60;25.60;21.00;92533.00;;;;10356677;28;45471;-61
2021/11/26 05:13:00;;;;;;;4.93;2.90;;;20.70;25.70;21.10;92536.00;;;;10369650;28;45382;-62
2021/11/26 05:18:04;;;;;;;4.07;2.28;;;20.60;25.80;21.10;92528.00;;;;10394737;28;45221;-62
2021/11/26 05:23:05;;;;;;;4.22;2.65;;;20.70;25.80;21.20;92505.00;;;;10367538;28;46123;-60
2021/11/26 05:28:05;;;;;;;4.40;2.80;;;20.70;25.90;21.20;92515.00;;;;10355836;28;45564;-63
2021/11/26 05:33:07;;;;;;;4.28;2.60;;;20.80;25.90;21.30;92519.00;;;;10394670;28;45521;-60
2021/11/26 05:38:08;;;;;;;5.20;2.92;;;20.80;25.70;21.30;92523.00;;;;10382070;28;45586;-62
2021/11/26 05:43:09;;;;;;;4.35;2.75;;;20.80;25.70;21.30;92507.00;;;;10354779;28;46429;-62
2021/11/26 05:48:09;;;;;;;4.20;2.80;;;20.80;25.70;21.30;92504.00;;;;10353979;28;45402;-60
2021/11/26 05:53:10;;;;;;;4.55;3.10;;;20.80;25.80;21.30;92498.00;;;;10355254;28;45455;-60
2021/11/26 05:58:11;;;;;;;5.03;2.90;;;20.90;25.80;21.30;92488.00;;;;10355068;28;45408;-61
2021/11/26 06:03:11;;;;;;;5.35;3.03;;;20.90;25.80;21.40;92489.00;;;;10355088;28;45109;-61
2021/11/26 06:08:12;;;;;;;5.53;3.05;;;20.90;25.70;21.40;92494.00;;;;10355043;28;45110;-60
2021/11/26 06:13:13;;;;;;;5.07;3.13;;;20.90;25.60;21.30;92487.00;;;;10353270;28;45389;-60
2021/11/26 06:18:13;;;;;;;4.00;2.90;;;20.90;25.70;21.40;92473.00;;;;10354521;28;45238;-60
2021/11/26 06:23:14;;;;;;;4.50;3.05;;;21.00;25.90;21.40;92476.00;;;;10353247;28;46644;-60
2021/11/26 06:28:15;;;;;;;4.85;3.10;;;21.00;25.70;21.40;92486.00;;;;10353081;28;46234;-60
2021/11/26 06:33:15;;;;;;;4.53;3.13;;;21.00;25.80;21.40;92493.00;;;;10353953;28;45629;-60
2021/11/26 06:38:16;;;;;;;4.93;3.42;;;21.00;25.70;21.40;92498.00;;;;10352939;28;45613;-60
2021/11/26 06:43:17;;;;;;;5.07;3.20;;;21.00;25.80;21.40;92497.00;;;;10353739;28;45571;-60
2021/11/26 06:48:17;;;;;;;4.88;3.28;;;21.00;25.70;21.40;92493.00;;;;10353631;28;45234;-60
2021/11/26 06:53:18;;;;;;;5.22;3.45;;;21.00;25.70;21.40;92497.00;;;;10360064;28;45173;-60
2021/11/26 06:58:19;;;;;;;4.95;3.15;;;21.00;25.60;21.40;92490.00;;;;10359430;28;45598;-60
2021/11/26 07:03:21;;;;;;;5.13;3.40;;;21.00;26.20;21.40;92498.00;;;;10360801;28;45312;-60
2021/11/26 07:08:22;;;;;;;5.10;3.55;;;21.00;25.50;21.50;92492.00;;;;10360829;28;45398;-60
2021/11/26 07:13:22;;;;;;;5.35;3.65;;;21.00;25.50;21.50;92508.00;;;;10359077;28;45288;-60
2021/11/26 07:18:23;;;;;;;5.22;3.47;;;21.10;25.50;21.50;92500.00;;;;10359848;28;46357;-60
2021/11/26 07:23:24;;;;;;;5.43;3.50;;;21.10;25.50;21.50;92505.00;;;;10358560;28;45135;-61
2021/11/26 07:28:24;;;;;;;5.85;3.60;;;21.10;25.50;21.50;92510.00;;;;10358833;28;45437;-61
2021/11/26 07:33:25;;;;;;;4.68;3.00;;;21.10;25.60;21.50;92497.00;;;;10358741;28;46442;-61
2021/11/26 07:38:26;;;;;;;4.47;3.05;;;21.10;25.60;21.50;92482.00;;;;10358914;28;46215;-60
2021/11/26 07:43:27;;;;;;;4.35;2.95;;;21.10;25.50;21.50;92489.00;;;;10357920;28;48419;-62
2021/11/26 07:48:28;;;;;;;6.88;4.47;;;21.10;25.90;21.50;92479.00;;;;10357750;28;45532;-60
2021/11/26 07:53:30;;;;;;;5.88;3.75;;;21.10;25.50;21.40;92469.00;;;;10357811;28;45304;-61
2021/11/26 07:58:31;;;;;;;5.85;3.78;;;21.10;25.00;21.50;92470.00;;;;10357855;28;45594;-61
2021/11/26 08:03:32;;;;;;;6.38;3.53;;;21.10;25.40;21.50;92468.00;;;;10356497;28;47193;-60
2021/11/26 08:08:33;;;;;;;5.25;3.75;;;21.10;25.40;21.50;92469.00;;;;10359047;28;45593;-59
2021/11/26 08:13:33;;;;;;;8.68;4.35;;;21.10;25.60;21.50;92447.00;;;;10357175;28;47052;-60
2021/11/26 08:18:34;;;;;;;12.68;4.53;;;21.10;25.50;21.50;92457.00;;;;10358288;28;45410;-59
2021/11/26 08:23:35;;;;;;;7.32;4.30;;;21.10;25.50;21.40;92437.00;;;;10356653;28;47795;-59
2021/11/26 08:28:36;;;;;;;7.13;3.97;;;21.10;25.40;21.40;92434.00;;;;10358054;28;45483;-61
2021/11/26 08:33:37;;;;;;;6.68;4.00;;;21.00;25.60;21.50;92442.00;;;;10357241;28;45323;-59
2021/11/26 08:38:38;;;;;;;6.30;4.10;;;21.00;25.50;21.40;92435.00;;;;10357451;28;45290;-59
2021/11/26 08:43:38;;;;;;;6.63;4.30;;;21.10;25.60;21.40;92440.00;;;;10356216;28;45256;-61
2021/11/26 08:48:39;;;;;;;7.15;4.55;;;21.10;25.50;21.50;92428.00;;;;10355077;28;46802;-60
2021/11/26 08:53:45;;;;;;;8.68;4.78;;;21.10;25.60;21.40;92423.00;;;;10355919;28;45188;-59
2021/11/26 08:58:46;;;;;;;8.43;4.77;;;21.00;25.50;21.50;92425.00;;;;10355590;28;45196;-64
2021/11/26 09:03:51;;;;;;;7.72;5.10;;;21.00;25.00;21.50;92418.00;;;;10356708;28;45241;-59
2021/11/26 09:08:52;;;;;;;10.05;5.75;;;21.10;25.30;21.40;92412.00;;;;10355238;28;46629;-59
2021/11/26 09:13:53;;;;;;;7.82;4.97;;;21.00;24.90;21.50;92414.00;;;;10354835;28;45277;-61
2021/11/26 09:18:54;;;;;;;9.57;5.70;;;21.00;24.90;21.40;92412.00;;;;10355760;28;46423;-61
2021/11/26 09:23:55;;;;;;;9.88;4.97;;;21.00;24.30;21.40;92408.00;;;;10355692;28;45152;-59
2021/11/26 09:28:56;;;;;;;7.10;4.32;;;20.90;24.70;21.30;92385.00;;;;10355691;28;45297;-61
2021/11/26 09:33:57;;;;;;;9.35;4.22;;;20.90;24.90;21.30;92398.00;;;;10354117;28;46120;-59
2021/11/26 09:38:58;;;;;;;7.45;4.78;;;20.90;24.80;21.30;92395.00;;;;10354172;28;46102;-59
2021/11/26 09:44:02;;;;;;;5.57;3.97;;;20.90;24.90;21.30;92404.00;;;;10354361;28;45630;-59
2021/11/26 09:49:03;;;;;;;10.48;4.50;;;20.90;24.90;21.30;92395.00;;;;10354107;28;45172;-60
2021/11/26 09:54:04;;;;;;;8.32;4.05;;;20.90;25.90;21.30;92395.00;;;;10353845;28;47161;-59
2021/11/26 09:59:05;;;;;;;7.28;3.65;;;20.90;26.30;21.40;92394.00;;;;10353886;28;46239;-59
2021/11/26 10:04:17;;;;;;;6.97;3.60;;;20.90;26.40;21.40;92390.00;;;;10336727;28;46924;-59
2021/11/26 10:09:22;;;;;;;8.93;4.45;;;20.90;26.60;21.40;92385.00;;;;10353576;28;45244;-60
2021/11/26 10:14:35;;;;;;;7.70;4.55;;;20.90;27.10;21.30;92384.00;;;;10353295;28;45566;-59
2021/11/26 10:19:39;;;;;;;6.72;4.50;;;20.90;27.10;21.30;92349.00;;;;10353317;28;46454;-60
2021/11/26 10:24:40;;;;;;;9.57;4.53;;;20.90;27.10;21.40;92361.00;;;;10352798;28;48471;-59
2021/11/26 10:29:41;;;;;;;5.65;3.50;;;20.90;27.00;21.40;92345.00;;;;10352425;28;45351;-59
2021/11/26 10:34:41;;;;;;;4.93;3.83;;;21.00;27.10;21.40;92326.00;;;;10336016;28;47062;-59
2021/11/26 10:39:43;;;;;;;7.47;4.22;;;21.00;27.20;21.40;92325.00;;;;10353718;28;46571;-59
2021/11/26 10:44:57;;;;;;;5.65;3.65;;;21.00;27.30;21.40;92333.00;;;;10352568;28;46283;-59
2021/11/26 10:50:34;;;;;;;6.88;4.30;;;21.00;27.20;21.40;92317.00;;;;10352586;28;45217;-60
2021/11/26 11:01:10;;;;;;;9.25;5.53;;;21.00;27.50;21.30;92301.00;;;;10353785;28;45173;-60
2021/11/26 11:06:24;;;;;;;8.30;5.35;;;20.90;27.30;21.30;92294.00;;;;10348862;28;45253;-62
2021/11/26 11:11:24;;;;;;;8.63;5.50;;;20.90;27.20;21.30;92303.00;;;;10351484;28;45177;-59
2021/11/26 11:16:25;;;;;;;8.07;5.13;;;20.90;27.30;21.30;92288.00;;;;10351057;28;46502;-59
2021/11/26 11:21:26;;;;;;;6.35;4.28;;;20.90;27.30;21.20;92291.00;;;;10334338;28;47405;-62
2021/11/26 11:26:27;;;;;;;6.18;3.95;;;20.90;27.00;21.30;92283.00;;;;10351527;28;45330;-60
2021/11/26 11:31:28;;;;;;;5.88;4.10;;;20.90;27.50;21.30;92276.00;;;;10351125;28;46572;-60
2021/11/26 11:36:35;;;;;;;5.40;3.70;;;20.90;27.40;21.30;92265.00;;;;10351317;28;45499;-60
2021/11/26 11:41:54;;;;;;;6.05;3.47;;;20.90;27.40;21.30;92251.00;;;;10358246;28;45476;-61
2021/11/26 11:46:58;;;;;;;5.82;3.88;;;20.90;27.40;21.30;92253.00;;;;10357825;28;45439;-60
2021/11/26 11:52:04;;;;;;;5.85;3.88;;;20.90;27.40;21.30;92241.00;;;;10357939;28;45207;-61
2021/11/26 11:57:07;;;;;;;5.18;3.45;;;21.00;27.50;21.40;92231.00;;;;10340901;28;47169;-60
2021/11/26 12:02:08;;;;;;;6.82;4.57;;;21.00;28.00;21.30;92238.00;;;;10357494;28;46156;-60
2021/11/26 12:07:21;;;;;;;6.13;4.05;;;21.00;27.10;21.20;92241.00;;;;10357609;28;46648;-59
2021/11/26 12:12:23;;;;;;;6.88;4.40;;;20.90;27.50;21.20;92228.00;;;;10373560;28;45257;-60
2021/11/26 12:17:37;;;;;;;6.35;4.32;;;20.90;27.50;21.20;92232.00;;;;10358012;28;45534;-62
2021/11/26 12:22:42;;;;;;;5.47;3.67;;;20.90;27.40;21.30;92215.00;;;;10356889;28;45323;-61
2021/11/26 12:27:43;;;;;;;4.28;3.08;;;20.90;27.60;21.30;92213.00;;;;10373119;28;46030;-60
2021/11/26 12:32:44;;;;;;;3.55;2.60;;;20.90;27.70;21.30;92208.00;;;;10355123;28;46385;-59
2021/11/26 12:37:48;;;;;;;4.82;2.90;;;20.90;27.80;21.30;92203.00;;;;10356357;28;45320;-60
2021/11/26 12:43:02;;;;;;;4.40;2.70;;;20.90;28.00;21.40;92204.00;;;;10356126;28;45187;-60
2021/11/26 12:48:07;;;;;;;3.20;2.60;;;20.90;28.00;21.40;92181.00;;;;10355535;28;45340;-59
2021/11/26 12:53:20;;;;;;;3.40;2.40;;;21.00;27.90;21.40;92195.00;;;;10354686;28;46834;-60
2021/11/26 12:58:22;;;;;;;3.10;2.50;;;21.00;27.80;21.40;92197.00;;;;10371710;28;45469;-60
2021/11/26 13:03:25;;;;;;;3.45;2.05;;;21.00;27.80;21.40;92180.00;;;;10356809;28;45367;-62
2021/11/26 13:08:30;;;;;;;2.30;1.70;;;21.00;27.70;21.40;92174.00;;;;10355580;28;46363;-60
2021/11/26 13:13:33;;;;;;;1.92;1.60;;;21.00;27.60;21.40;92182.00;;;;10356162;28;45368;-60
2021/11/26 13:18:34;;;;;;;2.05;1.50;;;21.00;27.50;21.40;92183.00;;;;10354977;28;45303;-59
2021/11/26 13:23:37;;;;;;;2.83;1.65;;;21.00;27.40;21.40;92187.00;;;;10354918;28;45149;-60
2021/11/26 13:28:42;;;;;;;2.72;1.70;;;21.00;27.40;21.50;92185.00;;;;10356009;28;45512;-61
2021/11/26 13:33:46;;;;;;;1.83;1.40;;;21.10;27.40;21.40;92155.00;;;;10337200;28;46869;-60
2021/11/26 13:39:08;;;;;;;1.92;1.40;;;21.00;27.40;21.50;92147.00;;;;10354533;28;45506;-60
2021/11/26 13:44:13;;;;;;;2.17;1.52;;;21.00;27.40;21.50;92139.00;;;;10354637;28;45358;-61
2021/11/26 13:49:17;;;;;;;1.83;1.40;;;21.10;27.20;21.40;92150.00;;;;10353599;28;45615;-60
2021/11/26 13:54:20;;;;;;;2.25;1.50;;;21.10;27.20;21.40;92134.00;;;;10355128;28;45262;-59
2021/11/26 13:59:30;;;;;;;2.25;1.58;;;21.10;27.10;21.50;92142.00;;;;10352716;28;46171;-59
2021/11/26 14:04:31;;;;;;;2.50;1.50;;;21.10;27.10;21.50;92129.00;;;;10353935;28;45348;-60
2021/11/26 14:09:32;;;;;;;2.90;1.60;;;21.10;27.20;21.50;92130.00;;;;10354799;28;45341;-60
2021/11/26 14:14:33;;;;;;;5.20;1.90;;;21.10;27.00;21.50;92140.00;;;;10354091;28;45235;-60
2021/11/26 14:19:39;;;;;;;3.72;2.55;;;21.10;27.00;21.40;92129.00;;;;10353076;28;46372;-60
2021/11/26 14:24:45;;;;;;;4.60;2.20;;;21.10;26.40;21.40;92121.00;;;;10354115;28;45283;-60
2021/11/26 14:29:53;;;;;;;4.32;2.10;;;21.00;26.40;21.40;92119.00;;;;10369578;28;45183;-62
2021/11/26 14:35:13;;;;;;;6.43;2.30;;;21.00;26.40;21.40;92106.00;;;;10351518;28;45238;-60
2021/11/26 14:40:22;;;;;;;15.20;3.80;;;21.00;26.30;21.40;92111.00;;;;10352292;28;45310;-59
2021/11/26 14:45:27;;;;;;;11.02;4.00;;;21.00;26.20;21.30;92117.00;;;;10352393;28;46095;-60
2021/11/26 14:50:27;;;;;;;8.35;3.50;;;20.90;26.20;21.20;92099.00;;;;10351634;28;46935;-59
2021/11/26 14:55:28;;;;;;;7.82;3.00;;;20.90;25.80;21.30;92083.00;;;;10351276;28;47108;-62
2021/11/26 15:00:29;;;;;;;5.47;2.60;;;20.90;26.50;21.20;92100.00;;;;10353040;28;45584;-61
2021/11/26 15:05:29;;;;;;;5.03;2.75;;;20.90;25.80;21.30;92108.00;;;;10351685;28;46087;-61
2021/11/26 15:10:30;;;;;;;3.53;2.30;;;20.90;26.20;21.30;92097.00;;;;10352634;28;45184;-60
2021/11/26 15:15:31;;;;;;;6.13;2.55;;;20.90;26.40;21.30;92081.00;;;;10396123;28;45305;-60
2021/11/26 15:20:32;;;;;;;6.93;3.58;;;20.90;25.90;21.20;92081.00;;;;10399992;28;45533;-60
2021/11/26 15:25:33;;;;;;;4.80;2.88;;;20.80;25.80;21.30;92088.00;;;;10398976;28;46428;-61
2021/11/26 15:30:35;;;;;;;5.78;2.92;;;20.80;26.10;21.20;92081.00;;;;10387523;28;45476;-60
2021/11/26 15:35:36;;;;;;;6.93;2.38;;;20.80;25.80;21.20;92067.00;;;;10356536;28;45227;-60
2021/11/26 15:40:36;;;;;;;7.10;2.78;;;20.80;26.30;21.20;92061.00;;;;10358276;28;47943;-62
2021/11/26 15:45:37;;;;;;;8.00;2.80;;;20.80;26.30;21.20;92062.00;;;;10357592;28;47274;-60
2021/11/26 15:50:39;;;;;;;8.68;3.35;;;20.80;26.10;21.10;92065.00;;;;10359344;28;45422;-60
2021/11/26 15:55:40;;;;;;;5.93;2.70;;;20.80;25.70;21.20;92056.00;;;;10373925;28;46244;-59
2021/11/26 16:00:41;;;;;;;5.85;3.55;;;20.80;26.30;21.20;92054.00;;;;10358621;28;47067;-59
2021/11/26 16:05:42;;;;;;;9.85;4.18;;;20.80;26.00;21.20;92046.00;;;;10357053;28;47201;-60
2021/11/26 16:10:43;;;;;;;11.75;4.28;;;20.80;26.00;21.10;92037.00;;;;10358076;28;45172;-61
2021/11/26 16:15:43;;;;;;;7.07;3.83;;;20.80;25.50;21.10;92049.00;;;;10351979;28;45382;-61
2021/11/26 16:20:44;;;;;;;5.72;3.60;;;20.70;25.40;21.00;92035.00;;;;10357637;28;45290;-61
2021/11/26 16:25:45;;;;;;;5.82;3.20;;;20.70;25.70;20.90;92013.00;;;;10356055;28;47225;-60
2021/11/26 16:30:45;;;;;;;7.47;3.25;;;20.70;25.70;20.90;92024.00;;;;10358193;28;46176;-60
2021/11/26 16:35:49;;;;;;;8.95;3.38;;;20.60;25.70;20.80;92006.00;;;;10356884;28;45249;-63
2021/11/26 16:40:50;;;;;;;6.18;3.88;;;20.50;25.70;20.90;92003.00;;;;10357102;28;45237;-60
2021/11/26 16:45:50;;;;;;;5.03;3.55;;;20.50;25.80;21.00;91993.00;;;;10356441;28;45383;-62
2021/11/26 16:50:51;;;;;;;6.45;3.88;;;20.50;25.90;21.00;92000.00;;;;10357377;28;46447;-60
2021/11/26 16:55:52;;;;;;;6.20;3.88;;;20.50;25.90;20.90;91979.00;;;;10357145;28;45569;-61
2021/11/26 17:00:57;;;;;;;5.20;3.10;;;20.50;25.80;21.00;91975.00;;;;10357321;28;45463;-63
2021/11/26 17:05:58;;;;;;;6.82;3.70;;;20.60;26.20;21.00;91976.00;;;;10356002;28;45639;-68
2021/11/26 17:10:59;;;;;;;6.88;3.28;;;20.60;26.00;21.00;91970.00;;;;10356790;28;45409;-62
2021/11/26 17:16:00;;;;;;;5.97;3.15;;;20.60;26.20;21.10;91969.00;;;;10395482;28;45285;-63
2021/11/26 17:21:00;;;;;;;6.47;3.22;;;20.60;26.30;21.20;91960.00;;;;10394885;28;47062;-62
2021/11/26 17:26:01;;;;;;;6.35;3.78;;;20.70;26.30;21.20;91960.00;;;;10396683;28;46046;-63
2021/11/26 17:31:04;;;;;;;12.98;5.30;;;20.70;26.30;21.20;91945.00;;;;10395046;28;45477;-62
2021/11/26 17:36:05;;;;;;;17.65;6.72;;;20.80;26.40;21.30;91945.00;;;;10377029;28;47475;-62
2021/11/26 17:41:05;;;;;;;21.02;8.18;;;20.80;26.40;21.30;91940.00;;;;10361515;28;47588;-62
2021/11/26 17:46:06;;;;;;;22.75;8.35;;;20.90;26.50;21.30;91938.00;;;;10337327;28;47485;-62
2021/11/26 17:51:07;;;;;;;17.77;7.53;;;20.90;26.40;21.30;91939.00;;;;10353923;28;45236;-62
2021/11/26 17:56:07;;;;;;;15.68;7.60;;;20.90;26.40;21.30;91933.00;;;;10354497;28;45451;-62
2021/11/26 18:01:09;;;;;;;12.32;5.93;;;20.90;26.40;21.30;91925.00;;;;10337042;28;47237;-62
2021/11/26 18:06:20;;;;;;;11.63;4.80;;;20.90;26.40;21.30;91928.00;;;;10336978;28;46978;-62
2021/11/26 18:11:31;;;;;;;8.57;4.65;;;20.90;26.30;21.30;91914.00;;;;10353743;28;45478;-63
2021/11/26 18:16:33;;;;;;;8.05;4.00;;;20.90;26.30;21.30;91899.00;;;;10357813;28;45453;-63
2021/11/26 18:21:34;;;;;;;5.40;3.20;;;20.90;26.20;21.40;91897.00;;;;10356395;28;46332;-63
2021/11/26 18:26:35;;;;;;;6.47;3.00;;;20.90;26.20;21.40;91897.00;;;;10359103;28;46408;-63
2021/11/26 18:31:35;;;;;;;5.43;2.95;;;20.90;26.70;21.40;91897.00;;;;10342304;28;47134;-63
2021/11/26 18:36:36;;;;;;;4.88;2.50;;;21.00;26.30;21.40;91891.00;;;;10357022;28;45390;-63
2021/11/26 18:41:37;;;;;;;4.15;2.40;;;21.00;26.30;21.40;91878.00;;;;10355539;28;48157;-63
2021/11/26 18:46:38;;;;;;;6.13;2.33;;;21.00;26.80;21.40;91855.00;;;;10355125;28;47119;-63
2021/11/26 18:51:39;;;;;;;3.78;2.13;;;21.00;26.40;21.60;91861.00;;;;10361477;28;45129;-63
2021/11/26 18:56:40;;;;;;;3.30;1.70;;;21.10;26.40;21.70;91857.00;;;;10359100;28;45304;-65
2021/11/26 19:01:41;;;;;;;2.30;1.33;;;21.20;26.40;21.60;91842.00;;;;10354201;28;45198;-62
2021/11/26 19:06:41;;;;;;;2.30;1.50;;;21.20;26.40;21.50;91834.00;;;;10352464;28;45532;-62
2021/11/26 19:11:43;;;;;;;2.50;1.63;;;21.20;26.40;21.50;91839.00;;;;10357787;28;46776;-62
2021/11/26 19:16:44;;;;;;;2.42;1.40;;;21.10;26.40;21.50;91832.00;;;;10393340;28;45239;-62
2021/11/26 19:21:45;;;;;;;2.67;1.30;;;21.10;26.50;21.50;91812.00;;;;10391906;28;45123;-62
2021/11/26 19:26:46;;;;;;;3.03;1.55;;;21.10;26.50;21.50;91801.00;;;;10392082;28;45478;-62
2021/11/26 19:31:47;;;;;;;3.53;1.35;;;21.10;26.60;21.50;91803.00;;;;10360898;28;45166;-62
2021/11/26 19:36:47;;;;;;;2.20;1.40;;;21.10;26.60;21.50;91802.00;;;;10350244;28;46438;-62
2021/11/26 19:41:48;;;;;;;2.20;1.33;;;21.10;26.60;21.50;91787.00;;;;10350523;28;45341;-62
2021/11/26 19:46:49;;;;;;;2.25;1.02;;;21.10;26.60;21.50;91789.00;;;;10351803;28;45311;-62
2021/11/26 19:51:50;;;;;;;2.63;1.35;;;21.10;26.70;21.50;91775.00;;;;10349912;28;45265;-62
2021/11/26 19:56:50;;;;;;;2.40;1.25;;;21.10;26.70;21.50;91766.00;;;;10349429;28;46350;-62
2021/11/26 20:01:51;;;;;;;2.22;1.02;;;21.10;26.70;21.50;91770.00;;;;10356571;28;47184;-62
2021/11/26 20:06:52;;;;;;;1.33;0.98;;;21.10;26.70;21.50;91751.00;;;;10356598;28;45679;-62
2021/11/26 20:11:53;;;;;;;1.75;1.00;;;21.00;26.70;21.50;91764.00;;;;10356880;28;45162;-62
2021/11/26 20:16:56;;;;;;;2.03;1.10;;;21.10;26.70;21.50;91743.00;;;;10356780;28;45311;-62
2021/11/26 20:21:58;;;;;;;1.45;1.10;;;21.10;26.70;21.50;91739.00;;;;10356293;28;45357;-62
2021/11/26 20:26:59;;;;;;;1.77;1.05;;;21.10;26.70;21.50;91726.00;;;;10355901;28;46417;-62
2021/11/26 20:32:00;;;;;;;1.73;1.10;;;21.00;26.70;21.50;91722.00;;;;10389217;28;45916;-62
2021/11/26 20:37:01;;;;;;;2.10;1.00;;;21.10;26.80;21.50;91719.00;;;;10397390;28;45281;-62
2021/11/26 20:42:01;;;;;;;1.38;0.98;;;21.10;26.70;21.50;91701.00;;;;10397476;28;46275;-62
2021/11/26 20:47:03;;;;;;;1.45;1.05;;;21.10;26.70;21.50;91700.00;;;;10396233;28;48116;-62
2021/11/26 20:52:04;;;;;;;2.72;1.10;;;21.10;26.70;21.50;91685.00;;;;10397359;28;45339;-62
2021/11/26 20:57:05;;;;;;;1.33;1.00;;;21.10;26.70;21.50;91683.00;;;;10396115;28;45767;-62
2021/11/26 21:02:06;;;;;;;1.38;1.00;;;21.10;26.70;21.50;91664.00;;;;10395904;28;45216;-62
2021/11/26 21:07:07;;;;;;;1.65;1.02;;;21.10;26.70;21.50;91669.00;;;;10379594;28;47961;-62
2021/11/26 21:12:08;;;;;;;1.50;1.00;;;21.10;26.70;21.50;91666.00;;;;10368312;28;47102;-62
2021/11/26 21:17:09;;;;;;;1.35;0.85;;;21.10;26.70;21.50;91652.00;;;;10354435;28;46507;-62
2021/11/26 21:22:09;;;;;;;2.05;0.93;;;21.10;26.60;21.50;91644.00;;;;10354995;28;45420;-62
2021/11/26 21:27:14;;;;;;;1.95;1.02;;;21.10;26.60;21.50;91624.00;;;;10353659;28;48551;-62
2021/11/26 21:32:14;;;;;;;0.68;0.60;;;21.10;27.20;21.40;91609.00;;;;10353729;28;45307;-62
2021/11/26 21:37:15;;;;;;;1.20;0.80;;;21.10;26.70;21.40;91602.00;;;;10355277;28;45153;-62
2021/11/26 21:42:16;;;;;;;1.25;0.80;;;21.00;26.50;21.30;91575.00;;;;10354722;28;46506;-61
2021/11/26 21:47:17;;;;;;;1.08;0.85;;;20.90;26.50;21.30;91564.00;;;;10353961;28;45195;-62
2021/11/26 21:52:18;;;;;;;1.70;0.82;;;20.90;26.50;21.30;91578.00;;;;10352106;28;46536;-62
2021/11/26 21:57:19;;;;;;;1.42;0.93;;;20.90;26.50;21.30;91566.00;;;;10352977;28;45347;-65
2021/11/26 22:02:20;;;;;;;1.65;0.95;;;20.90;26.40;21.30;91571.00;;;;10353010;28;46226;-62
2021/11/26 22:07:21;;;;;;;1.67;1.10;;;20.90;27.00;21.30;91555.00;;;;10352632;28;47309;-62
2021/11/26 22:12:22;;;;;;;2.10;1.20;;;20.90;26.50;21.20;91533.00;;;;10365900;28;45534;-62